Condiciones actuales en los principales Aeropuertos de España-Datos Metar

 

LEAL - Alicante
Actualización: 23/09/2021 07:30
Few Clouds
Few Clouds
 Viento del ONO
Viento: ONO 7 km/h
Temperatura: 19°C
Rocío: 15°C
Humedad: 78%
Barómetro: 1015 hPa
Nubosidad: Few Clouds
Visibilidad: 10 km
Cloud details: Few Clouds 1036 m
2021/09/23 05:30 LEAL 230530Z 30004KT 9999 FEW034 19/15 Q1015 NOSIG
LEAB - Albacete
Actualización: 23/09/2021 07:30
Few Clouds
Few Clouds
 Viento del NE
Viento: NE 7 km/h
Temperatura: 14°C
Rocío: 13°C
Humedad: 94%
Barómetro: 1019 hPa
Nubosidad: Few Clouds
Visibilidad: 10 km
Cloud details: Few Clouds 457 m
2021/09/23 05:30 LEAB 230530Z 05004KT 9999 FEW015 14/13 Q1019 NOSIG
LEAM - Almería
Actualización: 23/09/2021 07:30
Few Clouds
Few Clouds
 Viento del NNO
Viento: NNO 11 km/h
Temperatura: 22°C
Rocío: 15°C
Humedad: 65%
Barómetro: 1013 hPa
Nubosidad: Few Clouds
Visibilidad: 10 km
Cloud details: Few Clouds 1067 m
2021/09/23 05:30 LEAM 230530Z 34006KT 310V020 9999 FEW035 22/15 Q1013
 
LEAS - Asturias/Aviles
Actualización: 23/09/2021 07:30
Few Clouds
Few Clouds
 Viento del OSO
Viento: OSO 6 km/h
Temperatura: 14°C
Rocío: 13°C
Humedad: 94%
Barómetro: 1021 hPa
Nubosidad: Few Clouds
Visibilidad: 10 km
Cloud details: Few Clouds 671 m
2021/09/23 05:30 LEAS 230530Z 24003KT 9999 FEW022 14/13 Q1021 NOSIG
LEBZ - Badajoz/Talavera la Real
Actualización: 23/09/2021 07:30
LLuvia, Nearby thunderstorm, Parcialmente nublado
LLuvia, Nearby thunderstorm, Parcialmente nublado
 Viento del E
Viento: E 20 km/h
Temperatura: 16°C
Rocío: 15°C
Humedad: 94%
Barómetro: 1013 hPa
Resumen: LLuvia, Nearby thunderstorm
Nubosidad: Partly Cloudy
Visibilidad: 5 km
Cloud details: Partly Cloudy 1067 m
2021/09/23 05:30 LEBZ 230530Z 09011KT 070V140 5000 RA VCTS SCT035CB 16/15 Q1013
LEBL - Barcelona
Actualización: 23/09/2021 07:30
Lluvia débil, Poco nuboso
Lluvia débil, Poco nuboso
 Viento del ENE
Viento: ENE 24 km/h
Temperatura: 19°C
Rocío: 15°C
Humedad: 78%
Barómetro: 1019 hPa
Resumen: Light Rain
Nubosidad: Few Clouds
Visibilidad: 10 km
Cloud details: Few Clouds 914 m
Few Clouds 1219 m
2021/09/23 05:30 LEBL 230530Z 07013KT 9999 -RA FEW030 FEW040CB 19/15 Q1019 NOSIG
 
LEBB - Bilbao
Actualización: 23/09/2021 07:30
Few Clouds
Few Clouds
 Viento del E
Viento: E 4 km/h
Temperatura: 14°C
Rocío: 14°C
Humedad: 100%
Barómetro: 1022 hPa
Nubosidad: Few Clouds
Visibilidad: 10 km
Cloud details: Few Clouds 1341 m
2021/09/23 05:30 LEBB 230530Z 10002KT 9999 FEW044 14/14 Q1022 NOSIG
LEBG - Burgos/Villafría
Actualización: 23/09/2021 07:30
Cubierto
Cubierto
 Viento del NE
Viento: NE 15 km/h
Temperatura: 10°C
Wind Chill: 8°C
Rocío: 10°C
Humedad: 100%
Barómetro: 1022 hPa
Nubosidad: Cubierto
Visibilidad: 6 km
Cloud details: Cubierto 122 m
2021/09/23 05:30 LEBG 230530Z AUTO 05008KT 020V080 6000 OVC004 10/10 Q1022
LEBA - Córdoba
Actualización: 23/09/2021 07:30
Despejado
Despejado
 Viento del E
Viento: E 7 km/h
Temperatura: 18°C
Rocío: 14°C
Humedad: 78%
Barómetro: 1013 hPa
Resumen: Despejado
Visibilidad: greater than 10 km
2021/09/23 05:30 LEBA 230530Z AUTO 10004KT 070V130 CAVOK 18/14 Q1013
 
LEGE - Gerona
Actualización: 23/09/2021 07:30
Few Clouds
Few Clouds
 Viento del N
Viento: N 6 km/h
Temperatura: 15°C
Rocío: 12°C
Humedad: 82%
Barómetro: 1020 hPa
Nubosidad: Few Clouds
Visibilidad: 10 km
Cloud details: Few Clouds 1676 m
2021/09/23 05:30 LEGE 230530Z 01003KT 330V060 9999 FEW055 15/12 Q1020
LEGR - Granada
Actualización: 23/09/2021 07:30
Despejado
Despejado
 Viento del calm
Viento: Calma
Temperatura: 14°C
Rocío: 13°C
Humedad: 94%
Barómetro: 1015 hPa
Resumen: Despejado
Visibilidad: greater than 10 km
2021/09/23 05:30 LEGR 230530Z 00000KT CAVOK 14/13 Q1015
GCHI - Hierro
Actualización: 23/09/2021 07:30
Mostly Cloudy
Mostly Cloudy
 Viento del N
Viento: N 13 km/h
Temperatura: 23°C
Rocío: 17°C
Humedad: 69%
Barómetro: 1015 hPa
Nubosidad: Mostly Cloudy
Visibilidad: 10 km
Cloud details: Mostly Cloudy 792 m
Mostly Cloudy 1433 m
2021/09/23 05:30 GCHI 230530Z AUTO 01007KT 330V050 9999 BKN026 BKN047 23/17 Q1015
 
LEIB - Ibiza
Actualización: 23/09/2021 07:30
Few Clouds
Few Clouds
 Viento del N
Viento: N 9 km/h
Temperatura: 22°C
Rocío: 19°C
Humedad: 83%
Barómetro: 1014 hPa
Nubosidad: Few Clouds
Visibilidad: 10 km
Cloud details: Few Clouds 610 m
2021/09/23 05:30 LEIB 230530Z 36005KT 300V030 9999 FEW020 22/19 Q1014 NOSIG
LEJR - Jerez de la Frontera
Actualización: 23/09/2021 07:30
Partly Cloudy
Partly Cloudy
 Viento del varies
Viento: varies 2 km/h
Temperatura: 18°C
Rocío: 16°C
Humedad: 88%
Barómetro: 1010 hPa
Nubosidad: Partly Cloudy
Visibilidad: 10 km
Cloud details: Partly Cloudy 1829 m
2021/09/23 05:30 LEJR 230530Z VRB01KT 9999 SCT060 18/16 Q1010
LECO - A Coruña
Actualización: 23/09/2021 07:30
Partly Cloudy
Partly Cloudy
 Viento del SSO
Viento: SSO 7 km/h
Temperatura: 12°C
Rocío: 12°C
Humedad: 100%
Barómetro: 1020 hPa
Nubosidad: Partly Cloudy
Visibilidad: 7 km
2021/09/23 05:30 LECO 230530Z 20004KT 170V250 7000 NSC 12/12 Q1020 TEMPO 3000 BCFG
 
GCLA - La Palma
Actualización: 23/09/2021 07:30
Mostly Cloudy
Mostly Cloudy
 Viento del NNO
Viento: NNO 13 km/h
Temperatura: 23°C
Rocío: 17°C
Humedad: 69%
Barómetro: 1015 hPa
Nubosidad: Mostly Cloudy
Visibilidad: 10 km
Cloud details: Few Clouds 975 m
Mostly Cloudy 1676 m
2021/09/23 05:30 GCLA 230530Z AUTO 34007KT 9999 FEW032 BKN055 23/17 Q1015
GCRR - Lanzarote
Actualización: 23/09/2021 07:30
Few Clouds
Few Clouds
 Viento del varies
Viento: varies 4 km/h
Temperatura: 20°C
Rocío: 17°C
Humedad: 83%
Barómetro: 1013 hPa
Nubosidad: Few Clouds
Visibilidad: 10 km
Cloud details: Few Clouds 762 m
2021/09/23 05:30 GCRR 230530Z VRB02KT 9999 FEW025 20/17 Q1013
GCLP - Las Palmas
Actualización: 23/09/2021 07:30
Partly Cloudy
Partly Cloudy
 Viento del N
Viento: N 15 km/h
Temperatura: 22°C
Rocío: 16°C
Humedad: 69%
Barómetro: 1014 hPa
Nubosidad: Partly Cloudy
Visibilidad: 10 km
Cloud details: Few Clouds 762 m
Partly Cloudy 1219 m
2021/09/23 05:30 GCLP 230530Z 35008KT 9999 FEW025 SCT040 22/16 Q1014 NOSIG
 
LELN - León
Actualización: 23/09/2021 07:30
Despejado
Despejado
 Viento del N
Viento: N 7 km/h
Temperatura: 10°C
Wind Chill: 9°C
Rocío: 6°C
Humedad: 76%
Barómetro: 1021 hPa
Resumen: Despejado
Visibilidad: greater than 10 km
2021/09/23 05:30 LELN 230530Z AUTO 01004KT 330V050 CAVOK 10/06 Q1021
LELO - Logroño
Actualización: 23/09/2021 07:30
Despejado
Despejado
 Viento del O
Viento: O 4 km/h
Temperatura: 10°C
Rocío: 10°C
Humedad: 100%
Barómetro: 1022 hPa
Resumen: Despejado
Visibilidad: greater than 10 km
2021/09/23 05:30 LELO 230530Z 26002KT CAVOK 10/10 Q1022
LECV - Madrid/Colmenar
Actualización: 22/09/2021 20:00
NO Actualizado
Partly Cloudy
Partly Cloudy
 Viento del varies
Viento: varies 4 km/h
Temperatura: 18°C
Rocío: 8°C
Humedad: 52%
Barómetro: 1019 hPa
Nubosidad: Partly Cloudy
Visibilidad: 10 km
Cloud details: Few Clouds 1524 m
Partly Cloudy 1981 m
2021/09/22 18:00 LECV 221800Z VRB02KT 9999 FEW050 SCT065 18/08 Q1019
 
LEMD - Madrid/Barajas
Actualización: 23/09/2021 07:30
Mostly Cloudy
Mostly Cloudy
 Viento del NNE
Viento: NNE 7 km/h
Temperatura: 15°C
Rocío: 12°C
Humedad: 82%
Barómetro: 1019 hPa
Nubosidad: Mostly Cloudy
Visibilidad: 10 km
Cloud details: Mostly Cloudy 1219 m
2021/09/23 05:30 LEMD 230530Z 02004KT 9999 BKN040 15/12 Q1019 NOSIG
LEVS - Madrid/Cuatro Vientos
Actualización: 23/09/2021 07:30
Mostly Cloudy
Mostly Cloudy
 Viento del NNE
Viento: NNE 9 km/h
Temperatura: 15°C
Rocío: 12°C
Humedad: 82%
Barómetro: 1019 hPa
Nubosidad: Mostly Cloudy
Visibilidad: 10 km
Cloud details: Mostly Cloudy 945 m
2021/09/23 05:30 LEVS 230530Z 03005KT 340V100 9999 BKN031 15/12 Q1019
LEGT - Madrid/Getafe
Actualización: 23/09/2021 07:30
Mostly Cloudy
Mostly Cloudy
 Viento del NE
Viento: NE 19 km/h
Temperatura: 16°C
Rocío: 12°C
Humedad: 77%
Barómetro: 1019 hPa
Nubosidad: Mostly Cloudy
Visibilidad: 10 km
Cloud details: Mostly Cloudy 914 m
2021/09/23 05:30 LEGT 230530Z 05010KT 9999 BKN030 16/12 Q1019
 
LETO - Madrid/Torrejón
Actualización: 23/09/2021 07:30
Partly Cloudy
Partly Cloudy
 Viento del NNE
Viento: NNE 13 km/h
Temperatura: 14°C
Rocío: 12°C
Humedad: 88%
Barómetro: 1019 hPa
Nubosidad: Partly Cloudy
Visibilidad: 10 km
Cloud details: Partly Cloudy 1433 m
2021/09/23 05:30 LETO 230530Z 03007KT 9999 SCT047 14/12 Q1019 NOSIG
LEMG - Málaga
Actualización: 23/09/2021 07:30
Mostly Cloudy
Mostly Cloudy
 Viento del SSE
Viento: SSE 6 km/h
Temperatura: 22°C
Rocío: 20°C
Humedad: 88%
Barómetro: 1013 hPa
Nubosidad: Mostly Cloudy
Visibilidad: 10 km
Cloud details: Partly Cloudy 610 m
Mostly Cloudy 1067 m
2021/09/23 05:30 LEMG 230530Z 16003KT 130V190 9999 SCT020 BKN035 22/20 Q1013 NOSIG
GEML - Melilla
Actualización: 23/09/2021 07:30
Partly Cloudy
Partly Cloudy
 Viento del E
Viento: E 15 km/h
Temperatura: 21°C
Rocío: 20°C
Humedad: 94%
Barómetro: 1012 hPa
Nubosidad: Partly Cloudy
Visibilidad: 10 km
Cloud details: Few Clouds 152 m
Partly Cloudy 213 m
2021/09/23 05:30 GEML 230530Z 08008KT 050V120 9999 FEW005 SCT007 21/20 Q1012
 
LEMH - Mahón
Actualización: 23/09/2021 07:30
Partly Cloudy
Partly Cloudy
 Viento del E
Viento: E 24 km/h
Temperatura: 23°C
Rocío: 20°C
Humedad: 83%
Barómetro: 1016 hPa
Nubosidad: Partly Cloudy
Visibilidad: 10 km
Cloud details: Partly Cloudy 457 m
Partly Cloudy 1372 m
2021/09/23 05:30 LEMH 230530Z 08013KT 050V110 9999 SCT015 SCT045 23/20 Q1016
LEMO - Morón de La Frontera
Actualización: 23/09/2021 07:30
Despejado
Despejado
 Viento del ENE
Viento: ENE 17 km/h
Temperatura: 20°C
Rocío: 16°C
Humedad: 78%
Barómetro: 1011 hPa
Resumen: Despejado
Visibilidad: greater than 10 km
2021/09/23 05:30 LEMO 230530Z 07009KT CAVOK 20/16 Q1011 NOSIG
LEMI - Murcia/Corvera
Actualización: 23/09/2021 07:30
Partly Cloudy
Partly Cloudy
 Viento del NNO
Viento: NNO 24 km/h
Temperatura: 20°C
Rocío: 15°C
Humedad: 73%
Barómetro: 1015 hPa
Nubosidad: Partly Cloudy
Visibilidad: 10 km
Cloud details: Partly Cloudy 762 m
2021/09/23 05:30 LEMI 230530Z 34013KT 9999 SCT025 20/15 Q1015
 
LERI - Murcia/Alcantarilla
Actualización: 22/09/2021 20:00
NO Actualizado
Partly Cloudy
Partly Cloudy
 Viento del NE
Viento: NE 11 km/h
Temperatura: 25°C
Rocío: 15°C
Humedad: 54%
Barómetro: 1015 hPa
Nubosidad: Partly Cloudy
Visibilidad: 10 km
Cloud details: Partly Cloudy 1676 m
2021/09/22 18:00 LERI 221800Z 05006KT 9999 SCT055 25/15 Q1015 NOSIG
LELC - Murcia/San Javier
Actualización: 23/09/2021 07:30
Despejado
Despejado
 Viento del NNO
Viento: NNO 13 km/h
Temperatura: 20°C
Rocío: 16°C
Humedad: 78%
Barómetro: 1014 hPa
Resumen: Despejado
Visibilidad: greater than 10 km
2021/09/23 05:30 LELC 230530Z 34007KT CAVOK 20/16 Q1014 NOSIG
LEPA - Palma de Mallorca
Actualización: 23/09/2021 07:30
Mostly Cloudy
Mostly Cloudy
 Viento del ENE
Viento: ENE 7 km/h
Temperatura: 23°C
Rocío: 21°C
Humedad: 89%
Barómetro: 1016 hPa
Nubosidad: Mostly Cloudy
Visibilidad: 10 km
Cloud details: Few Clouds 610 m
Mostly Cloudy 1768 m
2021/09/23 05:30 LEPA 230530Z 07004KT 9999 FEW020 BKN058 23/21 Q1016 NOSIG
 
LEPP - Pamplona
Actualización: 23/09/2021 07:30
Despejado
Despejado
 Viento del calm
Viento: Calma
Temperatura: 10°C
Rocío: 10°C
Humedad: 100%
Barómetro: 1022 hPa
Resumen: Despejado
Visibilidad: greater than 10 km
2021/09/23 05:30 LEPP 230530Z 00000KT CAVOK 10/10 Q1022
LERS - Reus
Actualización: 23/09/2021 07:30
LLuvia, Muy nuboso
LLuvia, Muy nuboso
 Viento del NO
Viento: NO 9 km/h
Temperatura: 17°C
Rocío: 14°C
Humedad: 83%
Barómetro: 1020 hPa
Resumen: LLuvia
Nubosidad: Mostly Cloudy
Visibilidad: 10 km
Cloud details: Mostly Cloudy 1524 m
2021/09/23 05:30 LERS 230530Z 31005KT 9999 RA BKN050 17/14 Q1020
LERT - Rota
Actualización: 23/09/2021 07:30
Mostly Cloudy
Mostly Cloudy
 Viento del SE
Viento: SE 9 km/h
Temperatura: 22°C
Rocío: 19°C
Humedad: 83%
Barómetro: 1010 hPa
Nubosidad: Mostly Cloudy
Visibilidad: 9 km
Cloud details: Mostly Cloudy 762 m
2021/09/23 05:30 LERT 230530Z 13005KT 110V170 9000 BKN025 22/19 Q1010 NOSIG
 
LELL - Sabadell
Actualización: 23/09/2021 07:30
Partly Cloudy
Partly Cloudy
 Viento del varies
Viento: varies 2 km/h
Temperatura: 16°C
Rocío: 12°C
Humedad: 77%
Barómetro: 1020 hPa
Nubosidad: Partly Cloudy
Visibilidad: 10 km
Cloud details: Partly Cloudy 1707 m
2021/09/23 05:30 LELL 230530Z AUTO VRB01KT 9999 SCT056 16/12 Q1020
LESA - Salamanca
Actualización: 23/09/2021 07:30
Partly Cloudy
Partly Cloudy
 Viento del ENE
Viento: ENE 20 km/h
Temperatura: 11°C
Rocío: 9°C
Humedad: 88%
Barómetro: 1018 hPa
Nubosidad: Partly Cloudy
Visibilidad: 10 km
Cloud details: Partly Cloudy 1280 m
2021/09/23 05:30 LESA 230530Z 07011KT 9999 SCT042 11/09 Q1018
LESO - San Sebastián
Actualización: 23/09/2021 07:30
Few Clouds
Few Clouds
 Viento del S
Viento: S 6 km/h
Temperatura: 15°C
Rocío: 15°C
Humedad: 100%
Barómetro: 1021 hPa
Nubosidad: Few Clouds
Visibilidad: 9 km
Cloud details: Few Clouds 396 m
2021/09/23 05:30 LESO 230530Z 17003KT 140V200 9000 FEW013 15/15 Q1021
 
LEXJ - Santander
Actualización: 23/09/2021 07:30
Mostly Cloudy
Mostly Cloudy
 Viento del calm
Viento: Calma
Temperatura: 14°C
Rocío: 13°C
Humedad: 94%
Barómetro: 1022 hPa
Nubosidad: Mostly Cloudy
Visibilidad: 8 km
Cloud details: Mostly Cloudy 1372 m
2021/09/23 05:30 LEXJ 230530Z 00000KT 8000 BKN045 14/13 Q1022
LEPA - Palma de Mallorca
Actualización: 23/09/2021 07:30
Mostly Cloudy
Mostly Cloudy
 Viento del ENE
Viento: ENE 7 km/h
Temperatura: 23°C
Rocío: 21°C
Humedad: 89%
Barómetro: 1016 hPa
Nubosidad: Mostly Cloudy
Visibilidad: 10 km
Cloud details: Few Clouds 610 m
Mostly Cloudy 1768 m
2021/09/23 05:30 LEPA 230530Z 07004KT 9999 FEW020 BKN058 23/21 Q1016 NOSIG
LEPP - Pamplona
Actualización: 23/09/2021 07:30
Despejado
Despejado
 Viento del calm
Viento: Calma
Temperatura: 10°C
Rocío: 10°C
Humedad: 100%
Barómetro: 1022 hPa
Resumen: Despejado
Visibilidad: greater than 10 km
2021/09/23 05:30 LEPP 230530Z 00000KT CAVOK 10/10 Q1022
 
LEST - Santiago de Compostela
Actualización: 23/09/2021 07:30
Despejado
Despejado
 Viento del ENE
Viento: ENE 11 km/h
Temperatura: 14°C
Rocío: 11°C
Humedad: 82%
Barómetro: 1020 hPa
Resumen: Despejado
Visibilidad: greater than 10 km
2021/09/23 05:30 LEST 230530Z 06006KT 360V140 CAVOK 14/11 Q1020 NOSIG
LEZL - Sevilla
Actualización: 23/09/2021 07:39
Despejado
Despejado
 Viento del ENE
Viento: ENE 22 km/h
Temperatura: 21°C
Rocío: 15°C
Humedad: 69%
Barómetro: 1011 hPa
Resumen: Despejado
Visibilidad: greater than 10 km
2021/09/23 05:39 LEZL 230539Z 06012KT CAVOK 21/15 Q1011 NOSIG
GCXO - Tenerife
Actualización: 23/09/2021 07:30
Mostly Cloudy
Mostly Cloudy
 Viento del NO
Viento: NO 22 km/h
Temperatura: 18°C
Rocío: 15°C
Humedad: 83%
Barómetro: 1016 hPa
Nubosidad: Mostly Cloudy
Visibilidad: 10 km
Cloud details: Few Clouds 274 m
Mostly Cloudy 610 m
2021/09/23 05:30 GCXO 230530Z 32012KT 280V340 9999 FEW009 BKN020 18/15 Q1016 NOSIG
 
GCTS - Tenerife-Sur
Actualización: 23/09/2021 07:30
Mostly Cloudy
Mostly Cloudy
 Viento del NE
Viento: NE 9 km/h
Temperatura: 23°C
Rocío: 15°C
Humedad: 61%
Barómetro: 1014 hPa
Nubosidad: Mostly Cloudy
Visibilidad: 10 km
Cloud details: Mostly Cloudy 1128 m
2021/09/23 05:30 GCTS 230530Z 04005KT 9999 BKN037 23/15 Q1014 NOSIG
LEVC - Valencia
Actualización: 23/09/2021 07:30
Few Clouds
Few Clouds
 Viento del varies
Viento: varies 2 km/h
Temperatura: 19°C
Rocío: 18°C
Humedad: 94%
Barómetro: 1017 hPa
Nubosidad: Few Clouds
Visibilidad: 10 km
Cloud details: Few Clouds 1372 m
2021/09/23 05:30 LEVC 230530Z VRB01KT 9999 FEW045 19/18 Q1017 NOSIG
LEVD - Valladolid
Actualización: 23/09/2021 07:30
Despejado
Despejado
 Viento del ENE
Viento: ENE 24 km/h
Temperatura: 11°C
Rocío: 9°C
Humedad: 88%
Barómetro: 1020 hPa
Resumen: Despejado
Visibilidad: greater than 10 km
2021/09/23 05:30 LEVD 230530Z 07013KT CAVOK 11/09 Q1020
 
LEVX - Vigo
Actualización: 23/09/2021 07:30
Despejado
Despejado
 Viento del NNO
Viento: NNO 6 km/h
Temperatura: 17°C
Rocío: 10°C
Humedad: 64%
Barómetro: 1017 hPa
Resumen: Despejado
Visibilidad: greater than 10 km
2021/09/23 05:30 LEVX 230530Z 33003KT 280V030 CAVOK 17/10 Q1017 NOSIG
LEVT - Vitoria
Actualización: 23/09/2021 07:30
Nearby fog, Muy nuboso
Nearby fog, Muy nuboso
 Viento del ENE
Viento: ENE 6 km/h
Temperatura: 12°C
Rocío: 12°C
Humedad: 100%
Barómetro: 1022 hPa
Resumen: Nearby Fog
Nubosidad: Mostly Cloudy
Visibilidad: 9 km
Cloud details: Mostly Cloudy 488 m
2021/09/23 05:30 LEVT 230530Z 06003KT 030V090 9000 4000E VCFG BKN016 12/12 Q1022
LEZG - Zaragoza
Actualización: 23/09/2021 07:30
Few Clouds
Few Clouds
 Viento del O
Viento: O 9 km/h
Temperatura: 15°C
Rocío: 11°C
Humedad: 77%
Barómetro: 1020 hPa
Nubosidad: Few Clouds
Visibilidad: 10 km
Cloud details: Few Clouds 1981 m
2021/09/23 05:30 LEZG 230530Z 27005KT 9999 FEW065 15/11 Q1020

La estación de MeteoMurcia.com, publica sus datos en los siguientes proyectos:

Weather Underground PWS IMURCIAP2 Meteoclimatic www.awekas.at

W3Counter
Web Analytics